sensor_id;sensor_type;location;lat;lon;timestamp;pressure;altitude;pressure_sealevel;temperature;humidity
72802;BME280;61891;55.818;37.084;2022-12-28T00:00:20;98906.47;;;1.07;71.71
72802;BME280;61891;55.818;37.084;2022-12-28T00:02:45;98908.84;;;1.10;72.01
72802;BME280;61891;55.818;37.084;2022-12-28T00:05:12;98899.09;;;1.12;72.03
72802;BME280;61891;55.818;37.084;2022-12-28T00:07:38;98883.81;;;0.96;71.77
72802;BME280;61891;55.818;37.084;2022-12-28T00:10:04;98884.75;;;0.95;71.71
72802;BME280;61891;55.818;37.084;2022-12-28T00:12:30;98896.84;;;1.07;71.88
72802;BME280;61891;55.818;37.084;2022-12-28T00:14:58;98879.06;;;0.90;71.76
72802;BME280;61891;55.818;37.084;2022-12-28T00:17:23;98899.81;;;1.03;71.76
72802;BME280;61891;55.818;37.084;2022-12-28T00:19:49;98894.47;;;1.04;71.85
72802;BME280;61891;55.818;37.084;2022-12-28T00:22:15;98881.66;;;1.01;71.88
72802;BME280;61891;55.818;37.084;2022-12-28T00:24:41;98893.28;;;1.08;71.91
72802;BME280;61891;55.818;37.084;2022-12-28T00:27:06;98880.72;;;1.02;71.64
72802;BME280;61891;55.818;37.084;2022-12-28T00:29:32;98888.56;;;1.02;71.76
72802;BME280;61891;55.818;37.084;2022-12-28T00:31:58;98878.59;;;0.96;71.91
72802;BME280;61891;55.818;37.084;2022-12-28T00:34:24;98880.00;;;1.00;71.77
72802;BME280;61891;55.818;37.084;2022-12-28T00:36:50;98879.78;;;1.03;71.34
72802;BME280;61891;55.818;37.084;2022-12-28T00:39:17;98890.31;;;1.13;71.65
72802;BME280;61891;55.818;37.084;2022-12-28T00:41:43;98876.69;;;1.09;71.72
72802;BME280;61891;55.818;37.084;2022-12-28T00:44:09;98870.75;;;1.07;71.58
72802;BME280;61891;55.818;37.084;2022-12-28T00:46:35;98885.69;;;1.16;71.79
72802;BME280;61891;55.818;37.084;2022-12-28T00:49:00;98848.47;;;1.03;71.59
72802;BME280;61891;55.818;37.084;2022-12-28T00:51:26;98880.59;;;1.15;71.74
72802;BME280;61891;55.818;37.084;2022-12-28T00:53:52;98870.63;;;1.09;71.73
72802;BME280;61891;55.818;37.084;2022-12-28T00:56:19;98844.31;;;1.01;71.40
72802;BME280;61891;55.818;37.084;2022-12-28T00:58:47;98863.63;;;1.09;71.67
72802;BME280;61891;55.818;37.084;2022-12-28T01:01:15;98858.88;;;1.14;71.64
72802;BME280;61891;55.818;37.084;2022-12-28T01:03:41;98828.78;;;0.99;71.54
72802;BME280;61891;55.818;37.084;2022-12-28T01:06:10;98813.13;;;0.88;71.60
72802;BME280;61891;55.818;37.084;2022-12-28T01:08:37;98843.94;;;1.16;71.80
72802;BME280;61891;55.818;37.084;2022-12-28T01:11:15;98834.22;;;1.07;71.80
72802;BME280;61891;55.818;37.084;2022-12-28T01:13:41;98853.56;;;1.16;71.49
72802;BME280;61891;55.818;37.084;2022-12-28T01:18:40;98849.88;;;1.18;71.56
72802;BME280;61891;55.818;37.084;2022-12-28T01:21:14;98846.91;;;1.12;71.52
72802;BME280;61891;55.818;37.084;2022-12-28T01:23:42;98828.19;;;1.07;71.51
72802;BME280;61891;55.818;37.084;2022-12-28T01:26:08;98795.81;;;0.87;71.51
72802;BME280;61891;55.818;37.084;2022-12-28T01:28:34;98848.81;;;1.21;71.66
72802;BME280;61891;55.818;37.084;2022-12-28T01:31:03;98777.44;;;0.77;71.48
72802;BME280;61891;55.818;37.084;2022-12-28T01:33:29;98854.03;;;1.21;71.48
72802;BME280;61891;55.818;37.084;2022-12-28T01:35:55;98792.97;;;0.90;71.35
72802;BME280;61891;55.818;37.084;2022-12-28T01:38:21;98841.81;;;1.21;71.46
72802;BME280;61891;55.818;37.084;2022-12-28T01:40:47;98838.13;;;1.24;71.20
72802;BME280;61891;55.818;37.084;2022-12-28T01:43:13;98839.66;;;1.26;71.24
72802;BME280;61891;55.818;37.084;2022-12-28T01:45:40;98802.06;;;1.07;71.32
72802;BME280;61891;55.818;37.084;2022-12-28T01:48:16;98788.81;;;0.99;71.17
72802;BME280;61891;55.818;37.084;2022-12-28T01:50:44;98825.91;;;1.24;71.37
72802;BME280;61891;55.818;37.084;2022-12-28T01:53:10;98844.88;;;1.26;71.49
72802;BME280;61891;55.818;37.084;2022-12-28T01:55:38;98829.09;;;1.28;71.24
72802;BME280;61891;55.818;37.084;2022-12-28T02:00:32;98824.00;;;1.26;71.22
72802;BME280;61891;55.818;37.084;2022-12-28T02:03:04;98826.59;;;1.26;71.22
72802;BME280;61891;55.818;37.084;2022-12-28T02:05:38;98762.72;;;0.87;71.31
72802;BME280;61891;55.818;37.084;2022-12-28T02:08:18;98817.47;;;1.21;71.17
72802;BME280;61891;55.818;37.084;2022-12-28T02:10:46;98810.59;;;1.20;71.30
72802;BME280;61891;55.818;37.084;2022-12-28T02:13:15;98828.59;;;1.34;71.33
72802;BME280;61891;55.818;37.084;2022-12-28T02:15:42;98837.03;;;1.38;71.51
72802;BME280;61891;55.818;37.084;2022-12-28T02:18:09;98787.34;;;1.17;71.04
72802;BME280;61891;55.818;37.084;2022-12-28T02:23:43;98834.41;;;1.38;71.34
72802;BME280;61891;55.818;37.084;2022-12-28T02:37:03;98816.53;;;1.11;71.46
72802;BME280;61891;55.818;37.084;2022-12-28T02:39:42;98819.41;;;1.08;71.49
72802;BME280;61891;55.818;37.084;2022-12-28T02:42:10;98781.81;;;0.88;71.61
72802;BME280;61891;55.818;37.084;2022-12-28T02:44:37;98818.31;;;1.10;71.72
72802;BME280;61891;55.818;37.084;2022-12-28T02:47:22;98814.88;;;1.10;71.49
72802;BME280;61891;55.818;37.084;2022-12-28T02:50:10;98757.06;;;0.71;71.63
72802;BME280;61891;55.818;37.084;2022-12-28T02:52:54;98822.13;;;1.06;71.82
72802;BME280;61891;55.818;37.084;2022-12-28T03:06:41;98816.06;;;1.17;71.86
72802;BME280;61891;55.818;37.084;2022-12-28T03:09:49;98813.56;;;1.15;71.62
72802;BME280;61891;55.818;37.084;2022-12-28T03:12:29;98793.41;;;1.06;71.83
72802;BME280;61891;55.818;37.084;2022-12-28T03:15:07;98809.66;;;1.21;71.67
72802;BME280;61891;55.818;37.084;2022-12-28T03:17:37;98812.13;;;1.22;71.66
72802;BME280;61891;55.818;37.084;2022-12-28T03:20:30;98803.59;;;1.20;71.30
72802;BME280;61891;55.818;37.084;2022-12-28T03:23:18;98812.84;;;1.24;71.53
72802;BME280;61891;55.818;37.084;2022-12-28T03:26:06;98805.25;;;1.21;71.46
72802;BME280;61891;55.818;37.084;2022-12-28T03:28:53;98801.69;;;1.22;71.03
72802;BME280;61891;55.818;37.084;2022-12-28T03:31:41;98792.56;;;1.17;71.62
72802;BME280;61891;55.818;37.084;2022-12-28T03:34:10;98797.53;;;1.20;71.48
72802;BME280;61891;55.818;37.084;2022-12-28T03:44:54;98809.16;;;1.27;71.37
72802;BME280;61891;55.818;37.084;2022-12-28T03:47:24;98761.41;;;1.04;71.46
72802;BME280;61891;55.818;37.084;2022-12-28T03:49:51;98774.06;;;1.09;71.41
72802;BME280;61891;55.818;37.084;2022-12-28T03:52:17;98753.09;;;0.99;71.51
72802;BME280;61891;55.818;37.084;2022-12-28T03:54:45;98755.34;;;1.04;71.40
72802;BME280;61891;55.818;37.084;2022-12-28T03:57:13;98791.72;;;1.27;71.28
72802;BME280;61891;55.818;37.084;2022-12-28T03:59:43;98782.09;;;1.28;71.72
72802;BME280;61891;55.818;37.084;2022-12-28T04:02:09;98753.44;;;1.06;71.57
72802;BME280;61891;55.818;37.084;2022-12-28T04:04:35;98789.81;;;1.29;71.44
72802;BME280;61891;55.818;37.084;2022-12-28T04:07:00;98781.53;;;1.24;71.50
72802;BME280;61891;55.818;37.084;2022-12-28T04:09:26;98786.38;;;1.29;71.50
72802;BME280;61891;55.818;37.084;2022-12-28T04:11:54;98788.03;;;1.30;71.48
72802;BME280;61891;55.818;37.084;2022-12-28T04:14:27;98787.19;;;1.29;71.16
72802;BME280;61891;55.818;37.084;2022-12-28T04:16:53;98788.03;;;1.30;71.20
72802;BME280;61891;55.818;37.084;2022-12-28T04:19:19;98773.94;;;1.21;71.27
72802;BME280;61891;55.818;37.084;2022-12-28T04:21:46;98794.09;;;1.31;71.23
72802;BME280;61891;55.818;37.084;2022-12-28T04:24:12;98789.69;;;1.31;71.02
72802;BME280;61891;55.818;37.084;2022-12-28T04:26:39;98782.94;;;1.28;71.17
72802;BME280;61891;55.818;37.084;2022-12-28T04:29:04;98781.16;;;1.29;71.29
72802;BME280;61891;55.818;37.084;2022-12-28T04:31:37;98776.19;;;1.26;71.10
72802;BME280;61891;55.818;37.084;2022-12-28T04:34:10;98773.44;;;1.27;71.13
72802;BME280;61891;55.818;37.084;2022-12-28T04:36:39;98772.38;;;1.30;71.00
72802;BME280;61891;55.818;37.084;2022-12-28T04:39:10;98779.50;;;1.28;70.88
72802;BME280;61891;55.818;37.084;2022-12-28T04:41:36;98784.47;;;1.31;71.29
72802;BME280;61891;55.818;37.084;2022-12-28T04:44:02;98781.97;;;1.29;70.85
72802;BME280;61891;55.818;37.084;2022-12-28T04:46:28;98771.91;;;1.25;71.12
72802;BME280;61891;55.818;37.084;2022-12-28T04:48:53;98786.97;;;1.33;71.35
72802;BME280;61891;55.818;37.084;2022-12-28T04:51:25;98782.44;;;1.35;71.25
72802;BME280;61891;55.818;37.084;2022-12-28T04:53:51;98778.16;;;1.34;71.10
72802;BME280;61891;55.818;37.084;2022-12-28T04:56:18;98769.28;;;1.25;71.15
72802;BME280;61891;55.818;37.084;2022-12-28T04:58:45;98793.34;;;1.40;70.94
72802;BME280;61891;55.818;37.084;2022-12-28T05:01:13;98788.13;;;1.40;71.16
72802;BME280;61891;55.818;37.084;2022-12-28T05:03:41;98795.00;;;1.41;71.09
72802;BME280;61891;55.818;37.084;2022-12-28T05:06:11;98711.84;;;0.93;70.98
72802;BME280;61891;55.818;37.084;2022-12-28T05:08:37;98780.53;;;1.37;71.10
72802;BME280;61891;55.818;37.084;2022-12-28T05:11:06;98735.06;;;1.07;71.28
72802;BME280;61891;55.818;37.084;2022-12-28T05:13:32;98759.09;;;1.22;71.05
72802;BME280;61891;55.818;37.084;2022-12-28T05:16:05;98781.94;;;1.41;71.18
72802;BME280;61891;55.818;37.084;2022-12-28T05:18:31;98786.22;;;1.42;71.05
72802;BME280;61891;55.818;37.084;2022-12-28T05:21:03;98788.94;;;1.40;71.24
72802;BME280;61891;55.818;37.084;2022-12-28T05:23:30;98787.28;;;1.39;71.08
72802;BME280;61891;55.818;37.084;2022-12-28T05:25:56;98777.47;;;1.32;70.97
72802;BME280;61891;55.818;37.084;2022-12-28T05:28:23;98778.16;;;1.34;71.01
72802;BME280;61891;55.818;37.084;2022-12-28T05:30:49;98759.09;;;1.22;71.15
72802;BME280;61891;55.818;37.084;2022-12-28T05:33:15;98777.81;;;1.38;70.81
72802;BME280;61891;55.818;37.084;2022-12-28T05:35:41;98779.59;;;1.38;70.91
72802;BME280;61891;55.818;37.084;2022-12-28T05:38:06;98785.75;;;1.37;71.08
72802;BME280;61891;55.818;37.084;2022-12-28T05:40:32;98785.06;;;1.35;70.87
72802;BME280;61891;55.818;37.084;2022-12-28T05:42:59;98764.31;;;1.22;70.92
72802;BME280;61891;55.818;37.084;2022-12-28T05:45:25;98787.78;;;1.33;70.92
72802;BME280;61891;55.818;37.084;2022-12-28T05:47:50;98759.22;;;1.20;71.01
72802;BME280;61891;55.818;37.084;2022-12-28T05:50:16;98772.63;;;1.27;71.02
72802;BME280;61891;55.818;37.084;2022-12-28T05:52:42;98781.50;;;1.36;70.96
72802;BME280;61891;55.818;37.084;2022-12-28T05:55:08;98772.84;;;1.24;70.87
72802;BME280;61891;55.818;37.084;2022-12-28T05:57:33;98776.19;;;1.26;71.03
72802;BME280;61891;55.818;37.084;2022-12-28T05:59:59;98790.72;;;1.40;70.98
72802;BME280;61891;55.818;37.084;2022-12-28T06:02:25;98802.84;;;1.41;70.68
72802;BME280;61891;55.818;37.084;2022-12-28T06:04:53;98800.22;;;1.41;70.61
72802;BME280;61891;55.818;37.084;2022-12-28T06:07:19;98804.50;;;1.42;71.08
72802;BME280;61891;55.818;37.084;2022-12-28T06:09:45;98795.00;;;1.41;70.75
72802;BME280;61891;55.818;37.084;2022-12-28T06:12:11;98793.84;;;1.34;70.96
72802;BME280;61891;55.818;37.084;2022-12-28T06:14:36;98786.38;;;1.29;70.99
72802;BME280;61891;55.818;37.084;2022-12-28T06:17:02;98804.88;;;1.37;70.89
72802;BME280;61891;55.818;37.084;2022-12-28T06:19:28;98812.56;;;1.39;70.75
72802;BME280;61891;55.818;37.084;2022-12-28T06:21:54;98776.53;;;1.21;70.96
72802;BME280;61891;55.818;37.084;2022-12-28T06:24:19;98812.44;;;1.40;70.95
72802;BME280;61891;55.818;37.084;2022-12-28T06:26:45;98802.97;;;1.39;70.92
72802;BME280;61891;55.818;37.084;2022-12-28T06:29:11;98813.41;;;1.39;70.85
72802;BME280;61891;55.818;37.084;2022-12-28T06:31:39;98790.19;;;1.25;70.80
72802;BME280;61891;55.818;37.084;2022-12-28T06:34:06;98812.34;;;1.42;70.96
72802;BME280;61891;55.818;37.084;2022-12-28T06:36:38;98811.38;;;1.43;70.86
72802;BME280;61891;55.818;37.084;2022-12-28T06:39:06;98812.34;;;1.42;70.61
72802;BME280;61891;55.818;37.084;2022-12-28T06:41:32;98788.97;;;1.29;70.62
72802;BME280;61891;55.818;37.084;2022-12-28T06:43:58;98815.16;;;1.50;70.66
72802;BME280;61891;55.818;37.084;2022-12-28T06:46:27;98812.09;;;1.45;70.74
72802;BME280;61891;55.818;37.084;2022-12-28T06:48:53;98778.78;;;1.26;70.74
72802;BME280;61891;55.818;37.084;2022-12-28T06:51:29;98818.47;;;1.52;71.00
72802;BME280;61891;55.818;37.084;2022-12-28T06:53:56;98802.97;;;1.39;70.52
72802;BME280;61891;55.818;37.084;2022-12-28T06:56:30;98772.97;;;1.22;70.57
72802;BME280;61891;55.818;37.084;2022-12-28T06:58:56;98815.28;;;1.48;70.71
72802;BME280;61891;55.818;37.084;2022-12-28T07:01:27;98765.88;;;1.13;70.64
72802;BME280;61891;55.818;37.084;2022-12-28T07:03:54;98821.34;;;1.49;70.57
72802;BME280;61891;55.818;37.084;2022-12-28T07:06:24;98805.19;;;1.44;70.49
72802;BME280;61891;55.818;37.084;2022-12-28T07:08:51;98795.25;;;1.38;70.44
72802;BME280;61891;55.818;37.084;2022-12-28T07:11:19;98773.94;;;1.21;70.52
72802;BME280;61891;55.818;37.084;2022-12-28T07:13:45;98824.03;;;1.58;70.50
72802;BME280;61891;55.818;37.084;2022-12-28T07:16:21;98817.66;;;1.51;70.15
72802;BME280;61891;55.818;37.084;2022-12-28T07:18:48;98838.63;;;1.61;70.54
72802;BME280;61891;55.818;37.084;2022-12-28T07:21:18;98840.28;;;1.62;70.47
72802;BME280;61891;55.818;37.084;2022-12-28T07:23:46;98835.31;;;1.59;70.44
72802;BME280;61891;55.818;37.084;2022-12-28T07:26:17;98810.75;;;1.50;70.25
72802;BME280;61891;55.818;37.084;2022-12-28T07:28:46;98837.31;;;1.67;70.19
72802;BME280;61891;55.818;37.084;2022-12-28T07:31:14;98837.31;;;1.67;70.35
72802;BME280;61891;55.818;37.084;2022-12-28T07:33:42;98815.16;;;1.50;70.38
72802;BME280;61891;55.818;37.084;2022-12-28T07:36:11;98790.63;;;1.41;70.27
72802;BME280;61891;55.818;37.084;2022-12-28T07:38:37;98833.50;;;1.71;70.33
72802;BME280;61891;55.818;37.084;2022-12-28T07:41:14;98822.47;;;1.67;70.31
72802;BME280;61891;55.818;37.084;2022-12-28T07:43:41;98816.41;;;1.67;70.14
72802;BME280;61891;55.818;37.084;2022-12-28T07:48:38;98835.72;;;1.75;70.25
72802;BME280;61891;55.818;37.084;2022-12-28T07:53:37;98811.63;;;1.72;70.22
72802;BME280;61891;55.818;37.084;2022-12-28T07:56:04;98832.50;;;1.83;69.98
72802;BME280;61891;55.818;37.084;2022-12-28T07:58:29;98832.50;;;1.83;70.00
72802;BME280;61891;55.818;37.084;2022-12-28T08:01:06;98786.63;;;1.58;69.83
72802;BME280;61891;55.818;37.084;2022-12-28T08:03:32;98829.19;;;1.81;70.22
72802;BME280;61891;55.818;37.084;2022-12-28T08:06:17;98830.13;;;1.80;69.82
72802;BME280;61891;55.818;37.084;2022-12-28T08:08:46;98813.41;;;1.71;70.11
72802;BME280;61891;55.818;37.084;2022-12-28T08:11:18;98813.78;;;1.67;70.08
72802;BME280;61891;55.818;37.084;2022-12-28T08:13:45;98838.81;;;1.80;69.74
72802;BME280;61891;55.818;37.084;2022-12-28T08:16:13;98839.75;;;1.79;69.73
72802;BME280;61891;55.818;37.084;2022-12-28T08:18:40;98842.38;;;1.79;69.84
72802;BME280;61891;55.818;37.084;2022-12-28T08:21:30;98829.56;;;1.76;69.91
72802;BME280;61891;55.818;37.084;2022-12-28T08:23:55;98839.06;;;1.77;69.65
72802;BME280;61891;55.818;37.084;2022-12-28T08:26:26;98820.94;;;1.65;69.95
72802;BME280;61891;55.818;37.084;2022-12-28T08:28:55;98839.41;;;1.73;69.79
72802;BME280;61891;55.818;37.084;2022-12-28T08:31:26;98831.34;;;1.76;69.98
72802;BME280;61891;55.818;37.084;2022-12-28T08:33:53;98839.50;;;1.82;69.95
72802;BME280;61891;55.818;37.084;2022-12-28T08:36:20;98842.69;;;1.86;69.92
72802;BME280;61891;55.818;37.084;2022-12-28T08:38:47;98838.31;;;1.86;70.01
72802;BME280;61891;55.818;37.084;2022-12-28T08:41:16;98844.34;;;1.87;70.02
72802;BME280;61891;55.818;37.084;2022-12-28T08:43:42;98846.84;;;1.88;69.74
72802;BME280;61891;55.818;37.084;2022-12-28T08:46:14;98833.66;;;1.90;69.92
72802;BME280;61891;55.818;37.084;2022-12-28T08:48:41;98828.56;;;1.88;69.71
72802;BME280;61891;55.818;37.084;2022-12-28T08:51:13;98813.75;;;1.78;69.98
72802;BME280;61891;55.818;37.084;2022-12-28T08:53:40;98832.44;;;1.94;69.90
72802;BME280;61891;55.818;37.084;2022-12-28T08:56:15;98741.13;;;1.40;69.64
72802;BME280;61891;55.818;37.084;2022-12-28T08:58:43;98811.09;;;1.89;69.65
72802;BME280;61891;55.818;37.084;2022-12-28T09:01:18;98820.59;;;1.90;69.69
72802;BME280;61891;55.818;37.084;2022-12-28T09:03:46;98775.56;;;1.66;69.62
72802;BME280;61891;55.818;37.084;2022-12-28T09:06:15;98838.72;;;2.03;69.60
72802;BME280;61891;55.818;37.084;2022-12-28T09:08:41;98818.56;;;1.93;69.70
72802;BME280;61891;55.818;37.084;2022-12-28T09:11:10;98835.38;;;2.01;69.44
72802;BME280;61891;55.818;37.084;2022-12-28T09:13:36;98836.53;;;2.08;69.32
72802;BME280;61891;55.818;37.084;2022-12-28T09:16:07;98775.91;;;1.72;69.52
72802;BME280;61891;55.818;37.084;2022-12-28T09:18:34;98832.72;;;2.12;69.42
72802;BME280;61891;55.818;37.084;2022-12-28T09:21:11;98820.03;;;2.07;69.05
72802;BME280;61891;55.818;37.084;2022-12-28T09:23:40;98806.75;;;1.99;69.11
72802;BME280;61891;55.818;37.084;2022-12-28T09:26:15;98839.34;;;2.16;69.02
72802;BME280;61891;55.818;37.084;2022-12-28T09:28:52;98817.66;;;2.04;69.02
72802;BME280;61891;55.818;37.084;2022-12-28T09:31:20;98842.22;;;2.13;69.60
72802;BME280;61891;55.818;37.084;2022-12-28T09:33:46;98848.16;;;2.15;69.03
72802;BME280;61891;55.818;37.084;2022-12-28T09:42:26;98821.81;;;2.07;68.99
72802;BME280;61891;55.818;37.084;2022-12-28T09:44:57;98841.84;;;2.17;68.97
72802;BME280;61891;55.818;37.084;2022-12-28T09:55:09;98835.22;;;1.81;68.83
72802;BME280;61891;55.818;37.084;2022-12-28T09:57:39;98853.34;;;1.94;69.17
72802;BME280;61891;55.818;37.084;2022-12-28T10:00:15;98831.66;;;1.82;68.90
72802;BME280;61891;55.818;37.084;2022-12-28T10:02:44;98816.53;;;1.65;68.50
72802;BME280;61891;55.818;37.084;2022-12-28T10:05:11;98832.91;;;1.67;68.23
72802;BME280;61891;55.818;37.084;2022-12-28T10:07:38;98860.16;;;1.85;68.36
72802;BME280;61891;55.818;37.084;2022-12-28T10:10:04;98834.44;;;1.70;68.44
72802;BME280;61891;55.818;37.084;2022-12-28T10:12:30;98870.03;;;1.82;68.53
72802;BME280;61891;55.818;37.084;2022-12-28T10:14:56;98816.47;;;1.44;68.39
72802;BME280;61891;55.818;37.084;2022-12-28T10:17:26;98873.00;;;1.77;68.74
72802;BME280;61891;55.818;37.084;2022-12-28T10:19:56;98874.09;;;1.75;68.66
72802;BME280;61891;55.818;37.084;2022-12-28T10:22:23;98872.69;;;1.71;68.46
72802;BME280;61891;55.818;37.084;2022-12-28T10:24:52;98878.84;;;1.70;68.45
72802;BME280;61891;55.818;37.084;2022-12-28T10:29:43;98878.03;;;1.69;68.73
72802;BME280;61891;55.818;37.084;2022-12-28T10:32:09;98880.41;;;1.61;68.61
72802;BME280;61891;55.818;37.084;2022-12-28T10:34:52;98873.41;;;1.61;68.36
72802;BME280;61891;55.818;37.084;2022-12-28T10:37:19;98876.59;;;1.65;68.62
72802;BME280;61891;55.818;37.084;2022-12-28T10:39:46;98872.81;;;1.69;68.33
72802;BME280;61891;55.818;37.084;2022-12-28T10:42:29;98868.06;;;1.63;68.19
72802;BME280;61891;55.818;37.084;2022-12-28T10:45:04;98816.03;;;1.28;68.47
72802;BME280;61891;55.818;37.084;2022-12-28T10:47:38;98803.97;;;1.16;68.31
72802;BME280;61891;55.818;37.084;2022-12-28T10:50:05;98876.16;;;1.49;68.40
72802;BME280;61891;55.818;37.084;2022-12-28T10:52:31;98883.16;;;1.59;68.14
72802;BME280;61891;55.818;37.084;2022-12-28T10:54:57;98850.91;;;1.38;68.59
72802;BME280;61891;55.818;37.084;2022-12-28T10:59:51;98883.53;;;1.44;68.28
72802;BME280;61891;55.818;37.084;2022-12-28T11:05:19;98896.13;;;1.39;68.64
72802;BME280;61891;55.818;37.084;2022-12-28T11:07:46;98880.94;;;1.33;68.46
72802;BME280;61891;55.818;37.084;2022-12-28T11:10:25;98892.31;;;1.43;68.42
72802;BME280;61891;55.818;37.084;2022-12-28T11:12:54;98897.31;;;1.46;68.53
72802;BME280;61891;55.818;37.084;2022-12-28T11:15:23;98838.97;;;1.13;68.28
72802;BME280;61891;55.818;37.084;2022-12-28T11:17:56;98798.41;;;0.87;68.25
72802;BME280;61891;55.818;37.084;2022-12-28T11:20:28;98878.69;;;1.39;68.17
72802;BME280;61891;55.818;37.084;2022-12-28T11:22:56;98896.09;;;1.50;68.48
72802;BME280;61891;55.818;37.084;2022-12-28T11:25:30;98906.91;;;1.56;68.40
72802;BME280;61891;55.818;37.084;2022-12-28T11:27:57;98900.03;;;1.55;68.06
72802;BME280;61891;55.818;37.084;2022-12-28T11:30:22;98892.66;;;1.49;68.04
72802;BME280;61891;55.818;37.084;2022-12-28T11:32:57;98888.63;;;1.45;68.42
72802;BME280;61891;55.818;37.084;2022-12-28T11:35:26;98827.34;;;1.06;68.14
72802;BME280;61891;55.818;37.084;2022-12-28T11:37:55;98904.53;;;1.53;68.24
72802;BME280;61891;55.818;37.084;2022-12-28T11:45:56;98910.84;;;1.51;68.08
72802;BME280;61891;55.818;37.084;2022-12-28T11:51:19;98900.88;;;1.45;68.29
72802;BME280;61891;55.818;37.084;2022-12-28T11:56:13;98865.66;;;1.17;67.90
72802;BME280;61891;55.818;37.084;2022-12-28T12:01:07;98914.66;;;1.24;67.92
72802;BME280;61891;55.818;37.084;2022-12-28T12:11:55;98946.09;;;1.12;68.42
72802;BME280;61891;55.818;37.084;2022-12-28T12:14:29;98886.88;;;0.68;67.97
72802;BME280;61891;55.818;37.084;2022-12-28T12:16:59;98934.09;;;0.87;68.18
72802;BME280;61891;55.818;37.084;2022-12-28T12:19:32;98964.22;;;1.02;68.65
72802;BME280;61891;55.818;37.084;2022-12-28T12:22:01;98915.44;;;0.69;68.10
72802;BME280;61891;55.818;37.084;2022-12-28T12:24:31;98960.19;;;0.98;68.48
72802;BME280;61891;55.818;37.084;2022-12-28T12:27:02;98969.91;;;0.96;68.45
72802;BME280;61891;55.818;37.084;2022-12-28T12:29:43;98946.63;;;0.82;68.57
72802;BME280;61891;55.818;37.084;2022-12-28T12:32:23;98976.78;;;0.86;68.49
72802;BME280;61891;55.818;37.084;2022-12-28T12:34:56;98965.00;;;0.80;68.47
72802;BME280;61891;55.818;37.084;2022-12-28T12:37:35;98963.59;;;0.76;68.41
72802;BME280;61891;55.818;37.084;2022-12-28T12:51:44;98986.66;;;0.58;68.68
72802;BME280;61891;55.818;37.084;2022-12-28T12:57:01;98991.22;;;0.44;68.67
72802;BME280;61891;55.818;37.084;2022-12-28T12:59:49;98998.66;;;0.37;68.75
72802;BME280;61891;55.818;37.084;2022-12-28T13:05:24;98918.00;;;-0.25;68.78
72802;BME280;61891;55.818;37.084;2022-12-28T13:07:52;98968.66;;;0.08;68.94
72802;BME280;61891;55.818;37.084;2022-12-28T13:10:25;98942.13;;;-0.10;69.11
72802;BME280;61891;55.818;37.084;2022-12-28T13:12:57;99001.94;;;0.28;69.33
72802;BME280;61891;55.818;37.084;2022-12-28T13:15:23;98999.75;;;0.22;69.15
72802;BME280;61891;55.818;37.084;2022-12-28T13:18:05;99004.75;;;0.25;69.17
72802;BME280;61891;55.818;37.084;2022-12-28T13:20:31;98965.75;;;-0.01;69.36
72802;BME280;61891;55.818;37.084;2022-12-28T13:22:57;98998.00;;;0.22;69.46
72802;BME280;61891;55.818;37.084;2022-12-28T13:25:33;99000.72;;;0.21;69.39
72802;BME280;61891;55.818;37.084;2022-12-28T13:28:02;98999.88;;;0.20;69.55
72802;BME280;61891;55.818;37.084;2022-12-28T13:30:28;99007.81;;;0.19;69.57
72802;BME280;61891;55.818;37.084;2022-12-28T13:32:59;99008.53;;;0.21;69.69
72802;BME280;61891;55.818;37.084;2022-12-28T13:35:29;99019.78;;;0.21;69.58
72802;BME280;61891;55.818;37.084;2022-12-28T13:40:33;99013.75;;;0.21;69.56
72802;BME280;61891;55.818;37.084;2022-12-28T13:43:28;99017.56;;;0.28;69.53
72802;BME280;61891;55.818;37.084;2022-12-28T13:46:06;99020.91;;;0.30;69.57
72802;BME280;61891;55.818;37.084;2022-12-28T13:48:37;98970.75;;;0.03;69.65
72802;BME280;61891;55.818;37.084;2022-12-28T13:51:10;99027.56;;;0.34;69.60
72802;BME280;61891;55.818;37.084;2022-12-28T13:53:37;99011.63;;;0.26;69.62
72802;BME280;61891;55.818;37.084;2022-12-28T13:56:05;98995.31;;;0.11;69.52
72802;BME280;61891;55.818;37.084;2022-12-28T13:58:35;99003.97;;;0.12;69.35
72802;BME280;61891;55.818;37.084;2022-12-28T14:01:06;99029.03;;;0.25;69.69
72802;BME280;61891;55.818;37.084;2022-12-28T14:03:36;99009.06;;;0.13;69.55
72802;BME280;61891;55.818;37.084;2022-12-28T14:06:02;99042.25;;;0.35;69.54
72802;BME280;61891;55.818;37.084;2022-12-28T14:08:32;99037.38;;;0.30;69.53
72802;BME280;61891;55.818;37.084;2022-12-28T14:11:00;99044.84;;;0.35;69.57
72802;BME280;61891;55.818;37.084;2022-12-28T14:13:26;99037.59;;;0.27;69.57
72802;BME280;61891;55.818;37.084;2022-12-28T14:15:54;99049.50;;;0.43;69.56
72802;BME280;61891;55.818;37.084;2022-12-28T14:18:20;99038.81;;;0.35;69.46
72802;BME280;61891;55.818;37.084;2022-12-28T14:20:51;99027.59;;;0.21;69.50
72802;BME280;61891;55.818;37.084;2022-12-28T14:23:25;99057.88;;;0.35;69.49
72802;BME280;61891;55.818;37.084;2022-12-28T14:25:53;99027.59;;;0.21;69.66
72802;BME280;61891;55.818;37.084;2022-12-28T14:30:54;99045.56;;;0.37;69.80
72802;BME280;61891;55.818;37.084;2022-12-28T14:33:24;99047.47;;;0.35;69.51
72802;BME280;61891;55.818;37.084;2022-12-28T14:35:53;99015.50;;;0.20;69.85
72802;BME280;61891;55.818;37.084;2022-12-28T14:38:39;99040.84;;;0.42;69.45
72802;BME280;61891;55.818;37.084;2022-12-28T14:41:16;99046.06;;;0.42;69.21
72802;BME280;61891;55.818;37.084;2022-12-28T14:43:43;99050.84;;;0.48;69.65
72802;BME280;61891;55.818;37.084;2022-12-28T14:48:58;99052.72;;;0.46;69.54
72802;BME280;61891;55.818;37.084;2022-12-28T14:51:31;98957.13;;;-0.14;69.55
72802;BME280;61891;55.818;37.084;2022-12-28T14:54:27;99028.38;;;0.35;69.45
72802;BME280;61891;55.818;37.084;2022-12-28T14:57:02;99040.25;;;0.39;69.69
72802;BME280;61891;55.818;37.084;2022-12-28T14:59:42;99011.53;;;0.27;69.53
72802;BME280;61891;55.818;37.084;2022-12-28T15:02:38;99054.28;;;0.49;69.65
72802;BME280;61891;55.818;37.084;2022-12-28T15:08:02;99054.00;;;0.41;69.56